Time;durP1;ratioP1;P1;durP2;ratioP2;P2;SDS_P1;SDS_P2;PMS_P1;PMS_P2;Temp;Humidity;BMP_temperature;BMP_pressure;BME280_temperature;BME280_humidity;BME280_pressure;Samples;Min_cycle;Max_cycle;Signal;HPM_P1;HPM_P2
2023/12/13 00:01:21;;;;;;;13.10;5.20;;;;;;;7.13;100.00;99464.31;5072322;28;20102;-57
2023/12/13 00:03:50;;;;;;;9.05;4.65;;;;;;;7.15;100.00;99461.59;5072955;28;20075;-56
2023/12/13 00:06:19;;;;;;;10.55;5.15;;;;;;;7.15;100.00;99454.56;5072780;28;20514;-57
2023/12/13 00:08:48;;;;;;;10.88;5.15;;;;;;;7.15;100.00;99454.56;5072689;28;20491;-57
2023/12/13 00:11:16;;;;;;;9.95;4.68;;;;;;;7.16;100.00;99448.41;5072790;28;20076;-56
2023/12/13 00:13:44;;;;;;;10.75;4.72;;;;;;;7.16;100.00;99448.41;5072808;28;20040;-57
2023/12/13 00:16:12;;;;;;;10.43;4.90;;;;;;;7.17;100.00;99450.06;5072740;28;20047;-56
2023/12/13 00:18:41;;;;;;;10.45;4.13;;;;;;;7.17;100.00;99444.84;5072714;28;20087;-57
2023/12/13 00:21:12;;;;;;;9.60;3.97;;;;;;;7.16;100.00;99445.78;5070980;28;20048;-57
2023/12/13 00:23:42;;;;;;;9.75;4.15;;;;;;;7.14;100.00;99447.66;5069830;28;20048;-57
2023/12/13 00:26:14;;;;;;;9.32;3.90;;;;;;;7.14;100.00;99449.47;5071643;28;20064;-57
2023/12/13 00:28:42;;;;;;;11.35;4.15;;;;;;;7.09;100.00;99452.41;5072251;28;20068;-56
2023/12/13 00:31:10;;;;;;;8.20;4.05;;;;;;;7.10;100.00;99454.91;5068786;28;20697;-57
2023/12/13 00:33:38;;;;;;;7.80;4.28;;;;;;;7.08;100.00;99455.97;5071378;28;20048;-57
2023/12/13 00:36:07;;;;;;;10.20;4.07;;;;;;;7.07;100.00;99449.06;5072476;28;20051;-57
2023/12/13 00:38:36;;;;;;;10.65;4.25;;;;;;;7.06;100.00;99444.78;5072365;28;20135;-57
2023/12/13 00:41:05;;;;;;;10.05;4.38;;;;;;;7.05;100.00;99443.13;5072622;28;20119;-58
2023/12/13 00:43:34;;;;;;;7.95;4.15;;;;;;;7.05;100.00;99445.75;5072289;28;20048;-57
2023/12/13 00:46:02;;;;;;;8.25;4.05;;;;;;;7.05;100.00;99446.56;5072322;28;20051;-57
2023/12/13 00:48:30;;;;;;;10.70;4.38;;;;;;;7.04;100.00;99444.88;5071801;28;20080;-57
2023/12/13 00:50:58;;;;;;;8.20;4.20;;;;;;;7.02;100.00;99446.78;5072316;28;20143;-56
2023/12/13 00:53:28;;;;;;;8.95;4.22;;;;;;;7.02;100.00;99445.94;5072105;28;20052;-57
2023/12/13 00:55:56;;;;;;;9.82;4.07;;;;;;;7.04;100.00;99449.28;5071349;28;20257;-57
2023/12/13 00:58:26;;;;;;;9.10;4.25;;;;;;;7.01;100.00;99444.28;5068740;28;20099;-57
2023/12/13 01:00:54;;;;;;;8.35;4.30;;;;;;;7.03;100.00;99450.22;5070831;28;20109;-58
2023/12/13 01:03:22;;;;;;;12.57;4.35;;;;;;;7.01;100.00;99452.09;5071926;28;20072;-58
2023/12/13 01:05:50;;;;;;;8.38;4.10;;;;;;;7.02;100.00;99451.16;5072099;28;20056;-57
2023/12/13 01:08:18;;;;;;;13.48;4.22;;;;;;;7.05;100.00;99449.19;5068670;28;20057;-58
2023/12/13 01:10:46;;;;;;;9.82;4.18;;;;;;;7.06;100.00;99452.63;5069352;28;20037;-57
2023/12/13 01:13:15;;;;;;;10.48;4.32;;;;;;;7.04;100.00;99447.50;5070158;28;20430;-57
2023/12/13 01:15:44;;;;;;;9.45;4.18;;;;;;;7.04;100.00;99446.69;5069587;28;20053;-57
2023/12/13 01:18:13;;;;;;;10.82;3.97;;;;;;;7.06;100.00;99443.00;5069431;28;20044;-57
2023/12/13 01:20:41;;;;;;;9.93;4.28;;;;;;;7.07;100.00;99446.44;5069204;28;20045;-57
2023/12/13 01:23:10;;;;;;;10.77;4.10;;;;;;;7.06;100.00;99442.16;5068499;28;20119;-57
2023/12/13 01:25:38;;;;;;;8.27;3.60;;;;;;;7.08;100.00;99453.34;5068968;28;20041;-58
2023/12/13 01:28:07;;;;;;;9.07;4.05;;;;;;;7.08;100.00;99453.34;5068120;28;20574;-57
2023/12/13 01:30:35;;;;;;;12.15;3.88;;;;;;;7.06;100.00;99456.09;5069384;28;20419;-58
2023/12/13 01:33:08;;;;;;;8.20;3.42;;;;;;;7.06;100.00;99456.09;5069650;28;20551;-57
2023/12/13 01:35:36;;;;;;;8.23;3.40;;;;;;;7.07;100.00;99454.28;5070037;28;20134;-57
2023/12/13 01:38:07;;;;;;;9.15;3.45;;;;;;;7.06;100.00;99447.38;5071796;28;20051;-57
2023/12/13 01:40:35;;;;;;;8.13;3.28;;;;;;;7.04;100.00;99460.56;5071759;28;20128;-57
2023/12/13 01:43:03;;;;;;;10.05;3.40;;;;;;;7.07;100.00;99449.06;5071609;28;20569;-57
2023/12/13 01:45:32;;;;;;;9.60;3.45;;;;;;;7.05;100.00;99462.25;5069036;28;20242;-58
2023/12/13 01:48:00;;;;;;;8.15;3.40;;;;;;;7.06;100.00;99460.47;5068896;28;20065;-57
2023/12/13 01:50:30;;;;;;;7.35;3.00;;;;;;;7.02;100.00;99462.47;5069148;28;20884;-58
2023/12/13 01:52:58;;;;;;;9.60;3.20;;;;;;;7.00;100.00;99466.16;5073743;28;20052;-57
2023/12/13 01:55:26;;;;;;;11.30;3.60;;;;;;;7.00;100.00;99463.53;5075186;28;20407;-57
2023/12/13 01:57:54;;;;;;;8.63;3.47;;;;;;;6.99;100.00;99469.69;5075344;28;20044;-57
2023/12/13 02:00:22;;;;;;;8.32;3.03;;;;;;;7.00;100.00;99472.19;5074980;28;20044;-58
2023/12/13 02:02:52;;;;;;;8.70;3.17;;;;;;;6.99;100.00;99474.94;5075271;28;20057;-57
2023/12/13 02:05:21;;;;;;;7.22;3.05;;;;;;;6.99;100.00;99475.75;5075575;28;20592;-57
2023/12/13 02:07:51;;;;;;;8.52;3.42;;;;;;;7.01;100.00;99468.66;5075268;28;20045;-58
2023/12/13 02:10:20;;;;;;;12.57;3.45;;;;;;;6.99;100.00;99472.31;5075065;28;20072;-57
2023/12/13 02:12:48;;;;;;;9.50;3.08;;;;;;;6.98;100.00;99473.25;5075088;28;20407;-57
2023/12/13 02:15:16;;;;;;;10.57;3.20;;;;;;;6.98;100.00;99463.66;5075001;28;20132;-57
2023/12/13 02:17:51;;;;;;;11.90;3.15;;;;;;;6.98;100.00;99471.50;5073698;28;20057;-57
2023/12/13 02:20:19;;;;;;;8.57;3.05;;;;;;;7.00;100.00;99476.59;5073492;28;20048;-57
2023/12/13 02:22:51;;;;;;;10.18;2.83;;;;;;;7.01;100.00;99467.78;5072197;28;20770;-58
2023/12/13 02:25:26;;;;;;;11.70;2.80;;;;;;;7.00;100.00;99472.19;5071816;28;20056;-58
2023/12/13 02:27:57;;;;;;;7.80;2.97;;;;;;;6.99;100.00;99469.69;5074790;28;20053;-57
2023/12/13 02:30:26;;;;;;;10.18;2.65;;;;;;;7.00;100.00;99466.16;5074611;28;20483;-57
2023/12/13 02:32:56;;;;;;;7.03;2.90;;;;;;;6.99;100.00;99465.28;5074758;28;20051;-57
2023/12/13 02:35:24;;;;;;;8.18;2.55;;;;;;;6.97;100.00;99458.50;5072033;28;20044;-57
2023/12/13 02:37:54;;;;;;;9.50;2.80;;;;;;;6.97;100.00;99463.72;5071072;28;20052;-58
2023/12/13 02:40:22;;;;;;;8.93;2.70;;;;;;;6.98;100.00;99461.03;5074689;28;20047;-58
2023/12/13 02:42:51;;;;;;;8.45;2.70;;;;;;;6.96;100.00;99456.84;5073328;28;20075;-57
2023/12/13 02:45:20;;;;;;;5.85;2.30;;;;;;;6.96;100.00;99462.09;5073109;28;20045;-57
2023/12/13 02:47:49;;;;;;;5.97;2.50;;;;;;;6.97;100.00;99455.88;5074363;28;20106;-57
2023/12/13 02:50:18;;;;;;;7.00;2.67;;;;;;;6.97;100.00;99454.13;5071302;28;20932;-57
2023/12/13 02:52:46;;;;;;;7.82;2.33;;;;;;;6.95;100.00;99456.00;5071996;28;20048;-57
2023/12/13 02:55:16;;;;;;;8.90;2.72;;;;;;;6.95;100.00;99456.00;5074239;28;20442;-57
2023/12/13 02:57:44;;;;;;;7.10;2.55;;;;;;;6.98;100.00;99452.34;5074370;28;20388;-57
2023/12/13 03:00:13;;;;;;;6.55;2.90;;;;;;;6.93;100.00;99440.44;5074156;28;20040;-47
2023/12/13 03:02:41;;;;;;;7.43;2.53;;;;;;;6.92;100.00;99440.56;5074051;28;20114;-57
2023/12/13 03:05:09;;;;;;;5.97;2.30;;;;;;;6.95;100.00;99435.09;5073685;28;20052;-56
2023/12/13 03:07:40;;;;;;;7.00;2.30;;;;;;;6.94;100.00;99444.72;5071825;28;20770;-57
2023/12/13 03:10:09;;;;;;;7.75;2.50;;;;;;;6.98;100.00;99444.50;5073252;28;20045;-57
2023/12/13 03:12:40;;;;;;;9.38;2.53;;;;;;;6.96;100.00;99444.63;5073535;28;20079;-56
2023/12/13 03:15:09;;;;;;;6.57;2.22;;;;;;;6.96;100.00;99436.78;5070769;28;20211;-57
2023/12/13 03:17:37;;;;;;;6.72;2.28;;;;;;;6.99;100.00;99443.56;5070936;28;20561;-57
2023/12/13 03:20:08;;;;;;;7.13;2.50;;;;;;;7.00;100.00;99440.81;5070687;28;20495;-56
2023/12/13 03:22:39;;;;;;;5.13;2.22;;;;;;;7.01;100.00;99444.28;5070585;28;20037;-57
2023/12/13 03:25:08;;;;;;;7.78;2.63;;;;;;;6.98;100.00;99447.97;5071374;28;20553;-58
2023/12/13 03:27:37;;;;;;;6.50;2.80;;;;;;;7.00;100.00;99432.16;5073180;28;20051;-58
2023/12/13 03:30:08;;;;;;;9.05;3.30;;;;;;;6.99;100.00;99440.94;5073597;28;20621;-58
2023/12/13 03:32:38;;;;;;;8.05;3.00;;;;;;;7.01;100.00;99437.28;5073551;28;20052;-57
2023/12/13 03:35:07;;;;;;;8.65;3.25;;;;;;;7.01;100.00;99433.81;5073700;28;20041;-57
2023/12/13 03:37:38;;;;;;;10.32;3.80;;;;;;;7.01;100.00;99428.59;5073885;28;20115;-57
2023/12/13 03:40:08;;;;;;;7.30;3.28;;;;;;;7.01;100.00;99425.97;5073385;28;20063;-58
2023/12/13 03:42:36;;;;;;;9.43;3.80;;;;;;;6.99;100.00;99431.31;5073441;28;20066;-50
2023/12/13 03:45:07;;;;;;;9.43;4.00;;;;;;;6.98;100.00;99428.81;5073136;28;20050;-47
2023/12/13 03:47:35;;;;;;;7.68;3.90;;;;;;;6.96;100.00;99422.88;5073120;28;20083;-48
2023/12/13 03:50:04;;;;;;;7.05;3.15;;;;;;;6.99;100.00;99417.41;5073164;28;20048;-46
2023/12/13 03:52:33;;;;;;;9.13;3.70;;;;;;;7.00;100.00;99414.69;5072994;28;20049;-47
2023/12/13 03:55:01;;;;;;;10.00;3.92;;;;;;;7.01;100.00;99420.75;5069205;28;20045;-46
2023/12/13 03:57:29;;;;;;;10.95;3.83;;;;;;;7.02;100.00;99420.66;5067957;28;20053;-46
2023/12/13 03:59:57;;;;;;;8.27;3.80;;;;;;;7.01;100.00;99424.22;5070147;28;20048;-45
2023/12/13 04:02:27;;;;;;;9.90;4.20;;;;;;;7.02;100.00;99425.88;5070007;28;20052;-48
2023/12/13 04:04:56;;;;;;;7.97;4.20;;;;;;;7.04;100.00;99431.81;5071688;28;20495;-49
2023/12/13 04:07:26;;;;;;;10.38;4.65;;;;;;;7.06;100.00;99421.25;5072601;28;20480;-50
2023/12/13 04:09:54;;;;;;;10.05;4.80;;;;;;;7.07;100.00;99417.69;5072649;28;20415;-51
2023/12/13 04:12:23;;;;;;;10.05;4.95;;;;;;;7.08;100.00;99419.38;5072373;28;20044;-49
2023/12/13 04:14:51;;;;;;;11.07;4.90;;;;;;;7.07;100.00;99417.69;5071793;28;20706;-47
2023/12/13 04:17:19;;;;;;;11.23;5.53;;;;;;;7.04;100.00;99423.97;5070956;28;20047;-46
2023/12/13 04:19:48;;;;;;;11.13;6.00;;;;;;;7.08;100.00;99419.38;5072484;28;20076;-47
2023/12/13 04:22:16;;;;;;;10.55;5.78;;;;;;;7.10;100.00;99420.06;5072343;28;20116;-47
2023/12/13 04:24:45;;;;;;;13.35;6.60;;;;;;;7.07;100.00;99418.50;5072745;28;20045;-47
2023/12/13 04:27:13;;;;;;;12.15;6.60;;;;;;;7.07;100.00;99415.91;5072389;28;20111;-46
2023/12/13 04:29:41;;;;;;;11.43;6.65;;;;;;;7.09;100.00;99415.81;5072621;28;20536;-46
2023/12/13 04:32:09;;;;;;;12.23;7.22;;;;;;;7.10;100.00;99415.69;5070818;28;20048;-45
2023/12/13 04:34:37;;;;;;;14.23;7.28;;;;;;;7.09;100.00;99415.81;5069463;28;20059;-47
2023/12/13 04:37:07;;;;;;;13.90;6.82;;;;;;;7.11;100.00;99419.13;5069325;28;20516;-44
2023/12/13 04:39:35;;;;;;;13.25;6.53;;;;;;;7.12;100.00;99418.19;5070857;28;20387;-47
2023/12/13 04:42:06;;;;;;;12.10;6.45;;;;;;;7.16;100.00;99418.78;5072078;28;20127;-45
2023/12/13 04:44:35;;;;;;;15.38;6.63;;;;;;;7.15;100.00;99412.72;5069888;28;20531;-45
2023/12/13 04:47:03;;;;;;;13.32;6.95;;;;;;;7.18;100.00;99420.34;5068864;28;20048;-45
2023/12/13 04:49:32;;;;;;;11.57;6.88;;;;;;;7.16;100.00;99421.41;5071312;28;20048;-45
2023/12/13 04:52:00;;;;;;;15.48;6.93;;;;;;;7.12;100.00;99423.44;5071327;28;20538;-49
2023/12/13 04:54:30;;;;;;;17.52;7.68;;;;;;;7.10;100.00;99418.31;5071979;28;20369;-45
2023/12/13 04:56:58;;;;;;;14.65;7.70;;;;;;;7.08;100.00;99416.75;5070615;28;20062;-48
2023/12/13 04:59:26;;;;;;;16.73;8.50;;;;;;;7.09;100.00;99421.03;5071759;28;20515;-49
2023/12/13 05:01:54;;;;;;;18.15;7.57;;;;;;;7.08;100.00;99409.72;5071765;28;20549;-47
2023/12/13 05:04:23;;;;;;;16.10;7.75;;;;;;;7.14;100.00;99415.47;5070432;28;20049;-45
2023/12/13 05:06:51;;;;;;;12.50;7.78;;;;;;;7.13;100.00;99412.03;5071831;28;20060;-49
2023/12/13 05:09:22;;;;;;;15.10;7.90;;;;;;;7.14;100.00;99408.44;5069759;28;20443;-49
2023/12/13 05:11:51;;;;;;;17.13;8.30;;;;;;;7.16;100.00;99410.94;5067306;28;20079;-46
2023/12/13 05:14:19;;;;;;;13.15;7.47;;;;;;;7.16;100.00;99410.94;5068859;28;20056;-46
2023/12/13 05:16:47;;;;;;;14.85;7.38;;;;;;;7.15;100.00;99410.13;5069021;28;20072;-49
2023/12/13 05:19:15;;;;;;;15.90;7.97;;;;;;;7.14;100.00;99405.00;5071892;28;20532;-48
2023/12/13 05:21:44;;;;;;;11.30;7.10;;;;;;;7.14;100.00;99407.63;5069190;28;20155;-49
2023/12/13 05:24:12;;;;;;;13.95;7.15;;;;;;;7.13;100.00;99401.56;5068497;28;20048;-47
2023/12/13 05:26:40;;;;;;;17.65;7.65;;;;;;;7.15;100.00;99411.91;5070510;28;20064;-47
2023/12/13 05:29:10;;;;;;;19.92;7.50;;;;;;;7.17;100.00;99405.63;5070160;28;20044;-47
2023/12/13 05:31:38;;;;;;;14.80;7.40;;;;;;;7.17;100.00;99400.41;5070211;28;20517;-47
2023/12/13 05:34:06;;;;;;;14.07;7.32;;;;;;;7.18;100.00;99401.22;5071549;28;20464;-51
2023/12/13 05:36:34;;;;;;;15.18;6.95;;;;;;;7.18;100.00;99407.28;5069064;28;20422;-49
2023/12/13 05:39:03;;;;;;;11.75;6.80;;;;;;;7.19;100.00;99406.34;5068964;28;20352;-49
2023/12/13 05:41:31;;;;;;;13.25;6.65;;;;;;;7.23;100.00;99402.53;5071716;28;20041;-48
2023/12/13 05:44:00;;;;;;;15.98;6.85;;;;;;;7.24;100.00;99403.38;5071384;28;20123;-49
2023/12/13 05:46:33;;;;;;;13.85;6.57;;;;;;;7.24;100.00;99403.38;5071462;28;20049;-51
2023/12/13 05:49:03;;;;;;;13.80;6.13;;;;;;;7.24;100.00;99409.44;5071197;28;20057;-48
2023/12/13 05:51:32;;;;;;;14.93;6.30;;;;;;;7.23;100.00;99407.78;5070981;28;20033;-47
2023/12/13 05:54:02;;;;;;;14.60;6.55;;;;;;;7.25;100.00;99408.50;5067242;28;20041;-46
2023/12/13 05:56:30;;;;;;;14.20;6.00;;;;;;;7.28;100.00;99402.22;5065422;28;20056;-48
2023/12/13 05:58:59;;;;;;;15.30;6.18;;;;;;;7.26;100.00;99407.53;5068187;28;20051;-46
2023/12/13 06:01:28;;;;;;;14.13;6.20;;;;;;;7.26;100.00;99410.16;5070062;28;20056;-46
2023/12/13 06:03:56;;;;;;;14.10;6.53;;;;;;;7.26;100.00;99410.16;5071346;28;20040;-46
2023/12/13 06:06:25;;;;;;;13.13;6.22;;;;;;;7.23;100.00;99407.78;5070159;28;20056;-46
2023/12/13 06:08:53;;;;;;;13.95;6.38;;;;;;;7.25;100.00;99413.75;5068303;28;20133;-46
2023/12/13 06:11:21;;;;;;;12.23;5.65;;;;;;;7.24;100.00;99408.59;5068863;28;20555;-46
2023/12/13 06:13:50;;;;;;;12.00;5.50;;;;;;;7.25;100.00;99416.34;5069438;28;20049;-44
2023/12/13 06:16:18;;;;;;;12.70;5.65;;;;;;;7.26;100.00;99412.75;5067862;28;20052;-45
2023/12/13 06:18:48;;;;;;;19.73;6.43;;;;;;;7.24;100.00;99413.81;5071015;28;20356;-55
2023/12/13 06:21:16;;;;;;;20.15;6.60;;;;;;;7.26;100.00;99411.94;5071532;28;20496;-56
2023/12/13 06:23:44;;;;;;;14.82;5.72;;;;;;;7.28;100.00;99410.88;5071603;28;20549;-45
2023/12/13 06:26:15;;;;;;;11.43;5.25;;;;;;;7.25;100.00;99416.34;5071391;28;20569;-57
2023/12/13 06:28:43;;;;;;;19.48;6.22;;;;;;;7.25;100.00;99418.97;5071503;28;20037;-46
2023/12/13 06:31:12;;;;;;;19.17;6.82;;;;;;;7.28;100.00;99412.69;5070894;28;20052;-47
2023/12/13 06:33:41;;;;;;;17.02;6.40;;;;;;;7.29;100.00;99416.94;5070389;28;20076;-47
2023/12/13 06:36:10;;;;;;;18.27;6.35;;;;;;;7.29;100.00;99411.72;5067772;28;20041;-56
2023/12/13 06:38:39;;;;;;;16.73;6.53;;;;;;;7.30;100.00;99418.63;5073207;28;20053;-57
2023/12/13 06:41:07;;;;;;;14.18;6.03;;;;;;;7.30;100.00;99417.78;5072787;28;20052;-58
2023/12/13 06:43:36;;;;;;;15.25;5.97;;;;;;;7.27;100.00;99419.66;5069869;28;20080;-56
2023/12/13 06:46:04;;;;;;;17.23;6.40;;;;;;;7.27;100.00;99424.91;5074464;28;20079;-57
2023/12/13 06:48:32;;;;;;;14.18;5.70;;;;;;;7.28;100.00;99426.56;5074228;28;20060;-57
2023/12/13 06:51:01;;;;;;;16.92;6.13;;;;;;;7.26;100.00;99423.22;5073347;28;20053;-56
2023/12/13 06:53:30;;;;;;;18.48;6.80;;;;;;;7.26;100.00;99425.84;5074544;28;20040;-57
2023/12/13 06:55:59;;;;;;;19.05;6.40;;;;;;;7.28;100.00;99425.75;5074566;28;20048;-57
2023/12/13 06:58:27;;;;;;;19.98;6.95;;;;;;;7.30;100.00;99423.84;5073035;28;20146;-58
2023/12/13 07:00:55;;;;;;;13.60;6.10;;;;;;;7.31;100.00;99428.13;5074025;28;20051;-57
2023/12/13 07:03:23;;;;;;;16.40;6.18;;;;;;;7.34;100.00;99432.31;5071448;28;20139;-57
2023/12/13 07:05:52;;;;;;;13.40;6.10;;;;;;;7.34;100.00;99429.69;5072545;28;20052;-57
2023/12/13 07:08:21;;;;;;;16.33;6.05;;;;;;;7.32;100.00;99434.19;5071195;28;20052;-57
2023/12/13 07:10:50;;;;;;;14.38;6.35;;;;;;;7.31;100.00;99433.38;5070030;28;20126;-56
2023/12/13 07:13:18;;;;;;;15.32;5.93;;;;;;;7.32;100.00;99437.66;5069783;28;20044;-56
2023/12/13 07:15:47;;;;;;;16.35;6.90;;;;;;;7.32;100.00;99437.66;5072201;28;20060;-57
2023/12/13 07:18:15;;;;;;;16.63;6.50;;;;;;;7.34;100.00;99445.38;5071297;28;20130;-57
2023/12/13 07:20:43;;;;;;;18.55;6.80;;;;;;;7.34;100.00;99445.38;5073611;28;20036;-57
2023/12/13 07:23:11;;;;;;;17.25;6.43;;;;;;;7.34;100.00;99440.16;5073762;28;20049;-57
2023/12/13 07:25:41;;;;;;;18.83;6.45;;;;;;;7.36;100.00;99439.09;5072597;28;20071;-57
2023/12/13 07:28:13;;;;;;;19.15;6.95;;;;;;;7.31;100.00;99438.59;5073453;28;20047;-57
2023/12/13 07:30:42;;;;;;;16.83;7.07;;;;;;;7.33;100.00;99438.47;5073583;28;20056;-56
2023/12/13 07:33:23;;;;;;;18.98;7.28;;;;;;;7.38;100.00;99447.66;5073367;28;20047;-57
2023/12/13 07:35:52;;;;;;;18.90;6.55;;;;;;;7.33;100.00;99441.91;5073420;28;20059;-45
2023/12/13 07:38:20;;;;;;;17.52;7.03;;;;;;;7.33;100.00;99443.72;5068639;28;20194;-46
2023/12/13 07:40:48;;;;;;;17.00;7.07;;;;;;;7.34;100.00;99451.44;5071686;28;20086;-46
2023/12/13 07:43:19;;;;;;;17.95;6.68;;;;;;;7.30;100.00;99450.00;5073541;28;20479;-46
2023/12/13 07:45:51;;;;;;;22.98;6.90;;;;;;;7.36;100.00;99453.94;5073337;28;20048;-49
2023/12/13 07:48:20;;;;;;;15.98;6.35;;;;;;;7.36;100.00;99449.56;5072360;28;20444;-49
2023/12/13 07:50:58;;;;;;;16.52;7.72;;;;;;;7.34;100.00;99454.06;5073253;28;20063;-51
2023/12/13 07:53:27;;;;;;;17.15;6.93;;;;;;;7.36;100.00;99453.94;5072926;28;20040;-52
2023/12/13 07:55:55;;;;;;;18.73;7.15;;;;;;;7.38;100.00;99459.91;5071274;28;20040;-49
2023/12/13 07:58:24;;;;;;;23.00;6.32;;;;;;;7.42;100.00;99458.72;5068072;28;20131;-49
2023/12/13 08:00:53;;;;;;;21.35;6.45;;;;;;;7.42;100.00;99454.31;5072822;28;20407;-50
2023/12/13 08:03:21;;;;;;;16.60;6.05;;;;;;;7.40;100.00;99458.84;5071594;28;20063;-49
2023/12/13 08:05:49;;;;;;;15.75;6.10;;;;;;;7.37;100.00;99451.22;5071647;28;20066;-50
2023/12/13 08:08:17;;;;;;;20.65;6.82;;;;;;;7.38;100.00;99452.88;5069287;28;20056;-50
2023/12/13 08:10:46;;;;;;;14.57;5.82;;;;;;;7.39;100.00;99458.94;5071800;28;20557;-47
2023/12/13 08:13:15;;;;;;;20.05;5.82;;;;;;;7.39;100.00;99459.78;5072228;28;20173;-46
2023/12/13 08:15:45;;;;;;;12.98;6.10;;;;;;;7.40;100.00;99460.63;5070791;28;20052;-48
2023/12/13 08:18:14;;;;;;;18.67;6.90;;;;;;;7.41;100.00;99463.09;5069074;28;20515;-45
2023/12/13 08:20:43;;;;;;;14.50;6.38;;;;;;;7.38;100.00;99462.53;5071325;28;20056;-47
2023/12/13 08:23:12;;;;;;;17.13;6.30;;;;;;;7.41;100.00;99460.50;5070073;28;20114;-45
2023/12/13 08:25:41;;;;;;;15.55;5.97;;;;;;;7.39;100.00;99462.41;5069310;28;20436;-46
2023/12/13 08:28:10;;;;;;;21.63;6.10;;;;;;;7.41;100.00;99463.09;5071955;28;20056;-46
2023/12/13 08:30:41;;;;;;;17.95;6.72;;;;;;;7.43;100.00;99463.84;5069151;28;20098;-46
2023/12/13 08:33:11;;;;;;;17.40;6.60;;;;;;;7.44;100.00;99470.75;5070276;28;20059;-46
2023/12/13 08:35:39;;;;;;;14.55;6.22;;;;;;;7.47;100.00;99476.69;5072215;28;20068;-47
2023/12/13 08:38:07;;;;;;;15.77;6.90;;;;;;;7.49;100.00;99472.19;5070214;28;20076;-46
2023/12/13 08:40:35;;;;;;;17.23;6.65;;;;;;;7.49;100.00;99472.19;5067783;28;20454;-45
2023/12/13 08:43:04;;;;;;;15.98;6.75;;;;;;;7.51;100.00;99478.97;5071947;28;20127;-46
2023/12/13 08:45:32;;;;;;;19.00;6.25;;;;;;;7.47;100.00;99472.28;5070158;28;20049;-46
2023/12/13 08:48:00;;;;;;;21.13;6.85;;;;;;;7.50;100.00;99481.69;5071513;28;20056;-46
2023/12/13 08:50:30;;;;;;;17.38;6.72;;;;;;;7.50;100.00;99477.31;5070631;28;20516;-46
2023/12/13 08:52:58;;;;;;;16.38;6.72;;;;;;;7.51;100.00;99478.97;5071833;28;20051;-45
2023/12/13 08:55:29;;;;;;;17.60;7.00;;;;;;;7.51;100.00;99478.13;5071093;28;20051;-45
2023/12/13 08:57:58;;;;;;;20.17;7.45;;;;;;;7.52;100.00;99478.00;5070769;28;20565;-45
2023/12/13 09:00:26;;;;;;;20.63;7.78;;;;;;;7.54;100.00;99478.75;5068366;28;20522;-46
2023/12/13 09:02:55;;;;;;;20.10;8.27;;;;;;;7.55;100.00;99485.66;5067481;28;20084;-50
2023/12/13 09:05:23;;;;;;;18.13;7.85;;;;;;;7.57;100.00;99483.75;5068415;28;20036;-47
2023/12/13 09:07:54;;;;;;;18.73;7.63;;;;;;;7.61;100.00;99487.81;5071906;28;20056;-46
2023/12/13 09:10:24;;;;;;;20.27;7.50;;;;;;;7.65;100.00;99495.41;5071940;28;20052;-45
2023/12/13 09:12:54;;;;;;;21.20;8.05;;;;;;;7.67;100.00;99498.78;5071909;28;20045;-47
2023/12/13 09:15:22;;;;;;;24.55;8.00;;;;;;;7.70;100.00;99494.16;5071693;28;20040;-47
2023/12/13 09:17:50;;;;;;;19.20;7.95;;;;;;;7.75;100.00;99493.78;5070431;28;20068;-50
2023/12/13 09:20:18;;;;;;;20.80;7.88;;;;;;;7.77;100.00;99492.75;5068882;28;20549;-48
2023/12/13 09:22:46;;;;;;;20.15;7.43;;;;;;;7.78;100.00;99501.41;5069381;28;20055;-46
2023/12/13 09:25:16;;;;;;;17.48;7.88;;;;;;;7.78;100.00;99501.41;5071515;28;20037;-48
2023/12/13 09:27:46;;;;;;;22.00;7.15;;;;;;;7.79;100.00;99501.28;5071636;28;20106;-49
2023/12/13 09:30:15;;;;;;;16.60;7.43;;;;;;;7.80;100.00;99504.75;5071480;28;20469;-49
2023/12/13 09:32:43;;;;;;;16.23;7.65;;;;;;;7.83;100.00;99511.56;5071138;28;20547;-49
2023/12/13 09:35:15;;;;;;;20.33;7.65;;;;;;;7.84;100.00;99511.44;5071363;28;20052;-49
2023/12/13 09:37:43;;;;;;;17.30;7.55;;;;;;;7.80;100.00;99510.00;5071600;28;20090;-47
2023/12/13 09:40:16;;;;;;;13.20;7.00;;;;;;;7.85;100.00;99514.88;5069624;28;20048;-48
2023/12/13 09:42:46;;;;;;;16.30;7.43;;;;;;;7.87;100.00;99516.44;5066516;28;20080;-50
2023/12/13 09:45:20;;;;;;;15.27;6.88;;;;;;;7.90;100.00;99520.59;5071212;28;20044;-51
2023/12/13 09:47:49;;;;;;;14.93;7.05;;;;;;;7.89;100.00;99527.59;5071059;28;20064;-46
2023/12/13 09:50:18;;;;;;;17.13;7.68;;;;;;;7.91;100.00;99523.09;5070979;28;20120;-46
2023/12/13 09:52:47;;;;;;;19.52;7.57;;;;;;;7.91;100.00;99523.09;5071331;28;20514;-45
2023/12/13 09:55:16;;;;;;;20.30;8.27;;;;;;;7.93;100.00;99536.94;5071210;28;20037;-45
2023/12/13 09:57:46;;;;;;;13.95;7.30;;;;;;;7.94;100.00;99535.97;5071235;28;20123;-46
2023/12/13 10:00:15;;;;;;;17.08;7.38;;;;;;;7.99;100.00;99540.00;5071341;28;20131;-46
2023/12/13 10:02:45;;;;;;;14.68;7.20;;;;;;;8.01;100.00;99541.56;5071160;28;20048;-46
2023/12/13 10:05:17;;;;;;;15.02;7.53;;;;;;;8.02;100.00;99547.66;5069877;28;20491;-46
2023/12/13 10:07:45;;;;;;;15.75;7.50;;;;;;;7.98;100.00;99544.44;5071135;28;20063;-46
2023/12/13 10:10:17;;;;;;;13.40;6.88;;;;;;;7.99;100.00;99540.88;5071220;28;20128;-45
2023/12/13 10:12:52;;;;;;;14.80;7.18;;;;;;;8.02;100.00;99545.03;5072471;28;20059;-46
2023/12/13 10:15:20;;;;;;;18.42;7.40;;;;;;;8.06;100.00;99544.69;5071192;28;20458;-46
2023/12/13 10:17:48;;;;;;;18.20;7.07;;;;;;;8.06;100.00;99547.31;5073499;28;20055;-46
2023/12/13 10:20:17;;;;;;;17.52;6.90;;;;;;;8.05;100.00;99550.03;5074578;28;20329;-46
2023/12/13 10:22:44;;;;;;;13.23;6.70;;;;;;;8.07;100.00;99554.22;5074381;28;20551;-49
2023/12/13 10:25:13;;;;;;;16.52;7.65;;;;;;;8.05;100.00;99555.28;5071621;28;20389;-47
2023/12/13 10:27:42;;;;;;;14.25;6.88;;;;;;;8.04;100.00;99559.66;5071223;28;20077;-48
2023/12/13 10:30:13;;;;;;;16.38;7.40;;;;;;;8.09;100.00;99557.53;5074675;28;20048;-51
2023/12/13 10:32:42;;;;;;;18.33;7.18;;;;;;;8.13;100.00;99555.53;5074550;28;20055;-50
2023/12/13 10:35:10;;;;;;;13.85;6.95;;;;;;;8.10;100.00;99561.84;5073044;28;20400;-47
2023/12/13 10:37:41;;;;;;;13.75;6.80;;;;;;;8.12;100.00;99561.72;5074604;28;20060;-45
2023/12/13 10:40:13;;;;;;;15.00;6.53;;;;;;;8.12;100.00;99556.47;5074833;28;20444;-47
2023/12/13 10:42:45;;;;;;;14.30;6.20;;;;;;;8.14;100.00;99559.81;5074566;28;20052;-47
2023/12/13 10:45:18;;;;;;;17.33;6.20;;;;;;;8.13;100.00;99558.16;5074475;28;20485;-45
2023/12/13 10:47:46;;;;;;;12.43;6.10;;;;;;;8.13;100.00;99558.97;5074258;28;20110;-47
2023/12/13 10:50:15;;;;;;;11.25;5.03;;;;;;;8.17;100.00;99558.78;5073195;28;20055;-49
2023/12/13 10:52:45;;;;;;;9.70;4.90;;;;;;;8.11;100.00;99555.66;5071390;28;20059;-49
2023/12/13 10:55:16;;;;;;;13.90;4.70;;;;;;;8.09;100.00;99559.34;5070985;28;20040;-50
2023/12/13 10:57:44;;;;;;;8.63;4.25;;;;;;;8.09;100.00;99554.09;5069543;28;20075;-47
2023/12/13 11:00:15;;;;;;;10.85;5.03;;;;;;;8.08;100.00;99562.91;5073957;28;20041;-49
2023/12/13 11:02:50;;;;;;;10.60;4.60;;;;;;;8.09;100.00;99554.91;5074275;28;20444;-47
2023/12/13 11:05:20;;;;;;;10.40;3.75;;;;;;;8.08;100.00;99561.09;5073998;28;20076;-49
2023/12/13 11:07:48;;;;;;;9.60;3.90;;;;;;;8.08;100.00;99565.50;5074130;28;20066;-45
2023/12/13 11:10:16;;;;;;;8.25;3.25;;;;;;;8.02;100.00;99566.00;5074094;28;20055;-50
2023/12/13 11:12:49;;;;;;;9.35;3.33;;;;;;;8.04;100.00;99566.69;5074044;28;20052;-50
2023/12/13 11:15:22;;;;;;;9.07;2.75;;;;;;;8.03;100.00;99571.09;5073765;28;20128;-48
2023/12/13 11:17:54;;;;;;;7.18;2.42;;;;;;;7.99;100.00;99572.28;5073825;28;20051;-51
2023/12/13 11:20:23;;;;;;;6.07;2.47;;;;;;;7.92;100.00;99571.91;5072455;28;20109;-51
2023/12/13 11:22:56;;;;;;;7.22;2.58;;;;;;;7.91;100.00;99574.63;5073516;28;20057;-48
2023/12/13 11:25:35;;;;;;;7.60;2.40;;;;;;;7.88;100.00;99569.59;5073291;28;20119;-48
2023/12/13 11:28:04;;;;;;;5.65;2.53;;;;;;;7.86;100.00;99577.59;5073363;28;20398;-57
2023/12/13 11:30:36;;;;;;;5.25;2.28;;;;;;;7.87;100.00;99581.06;5073643;28;20087;-57
2023/12/13 11:33:12;;;;;;;6.50;2.40;;;;;;;7.91;100.00;99575.47;5073540;28;20048;-58
2023/12/13 11:35:40;;;;;;;5.63;2.20;;;;;;;7.87;100.00;99583.66;5072420;28;20507;-47